Time;durP1;ratioP1;P1;durP2;ratioP2;P2;SDS_P1;SDS_P2;PMS_P1;PMS_P2;Temp;Humidity;BMP_temperature;BMP_pressure;BME280_temperature;BME280_humidity;BME280_pressure;Samples;Min_cycle;Max_cycle;Signal;HPM_P1;HPM_P2
2022/05/04 00:01:28;;;;;;;1999.90;999.90;;;;;;;16.89;60.27;95308.63;4972377;28;20027;-70
2022/05/04 00:03:53;;;;;;;1999.90;999.90;;;;;;;17.02;60.03;95320.88;4968689;28;20102;-70
2022/05/04 00:06:18;;;;;;;1999.90;999.90;;;;;;;16.94;60.01;95315.63;4954146;28;20040;-70
2022/05/04 00:08:44;;;;;;;1999.90;999.90;;;;;;;16.89;60.14;95297.88;4971454;28;20061;-71
2022/05/04 00:11:09;;;;;;;1999.90;999.90;;;;;;;16.83;60.53;95291.13;4971557;28;20022;-68
2022/05/04 00:13:35;;;;;;;1999.90;999.90;;;;;;;16.97;60.22;95310.38;4970519;28;20391;-70
2022/05/04 00:16:01;;;;;;;1999.90;999.90;;;;;;;16.98;60.62;95303.09;4972476;28;20038;-69
2022/05/04 00:18:30;;;;;;;1999.90;999.90;;;;;;;17.07;60.52;95315.25;4969210;28;20027;-69
2022/05/04 00:20:56;;;;;;;1999.90;999.90;;;;;;;16.97;60.32;95288.88;4973963;28;20062;-69
2022/05/04 00:23:22;;;;;;;1999.90;999.90;;;;;;;17.12;60.24;95312.34;4971781;28;20042;-69
2022/05/04 00:25:47;;;;;;;1999.90;999.90;;;;;;;17.15;60.26;95318.94;4987454;28;20049;-69
2022/05/04 00:28:13;;;;;;;1999.90;999.90;;;;;;;16.98;59.53;95303.09;4986013;28;20089;-69
2022/05/04 00:30:38;;;;;;;1999.90;999.90;;;;;;;16.97;60.28;95307.69;4986509;28;20383;-69
2022/05/04 00:33:03;;;;;;;1999.90;999.90;;;;;;;16.96;60.23;95300.75;4971920;28;20043;-69
2022/05/04 00:35:29;;;;;;;1999.90;999.90;;;;;;;17.05;60.27;95316.75;4971060;28;20372;-69
2022/05/04 00:37:54;;;;;;;1999.90;999.90;;;;;;;17.10;60.31;95314.59;4986340;28;20027;-68
2022/05/04 00:40:20;;;;;;;1999.90;999.90;;;;;;;17.12;60.09;95312.34;4969855;28;20035;-70
2022/05/04 00:42:45;;;;;;;1999.90;999.90;;;;;;;17.13;59.96;95319.28;4986850;28;20038;-69
2022/05/04 00:45:10;;;;;;;1999.90;999.90;;;;;;;17.20;60.19;95323.28;4971315;28;20523;-69
2022/05/04 00:47:36;;;;;;;1999.90;999.90;;;;;;;17.19;60.21;95317.13;4970157;28;20035;-69
2022/05/04 00:50:04;;;;;;;1999.90;999.90;;;;;;;17.25;60.20;95325.72;4970180;28;20097;-69
2022/05/04 00:52:31;;;;;;;1999.90;999.90;;;;;;;17.20;60.21;95312.53;4969520;28;20027;-69
2022/05/04 00:54:56;;;;;;;1999.90;999.90;;;;;;;17.11;60.05;95294.66;4985801;28;20039;-69
2022/05/04 00:58:54;;;;;;;1999.90;999.90;;;;;;;17.03;59.99;95279.44;4985723;28;20038;-69
2022/05/04 01:00:08;;;;;;;1999.90;999.90;;;;;;;17.27;59.94;95323.50;4971442;28;20113;-69
2022/05/04 01:02:36;;;;;;;1999.90;999.90;;;;;;;17.20;60.14;95317.91;4985373;28;20027;-69
2022/05/04 01:05:01;;;;;;;1999.90;999.90;;;;;;;17.15;59.89;95317.03;4971652;28;20027;-69
2022/05/04 01:07:27;;;;;;;1999.90;999.90;;;;;;;17.08;59.80;95310.66;4985959;28;20541;-69
2022/05/04 01:09:53;;;;;;;1999.90;999.90;;;;;;;17.12;60.06;95320.41;4969829;28;20427;-69
2022/05/04 01:12:23;;;;;;;1999.90;999.90;;;;;;;17.11;59.99;95323.44;4985307;28;20031;-70
2022/05/04 01:14:48;;;;;;;1999.90;999.90;;;;;;;16.91;60.28;95284.88;4971600;28;20038;-69
2022/05/04 01:17:14;;;;;;;1999.90;999.90;;;;;;;17.11;59.95;95318.84;4970596;28;20022;-69
2022/05/04 01:19:39;;;;;;;1999.90;999.90;;;;;;;16.98;60.17;95303.09;4970378;28;20464;-69
2022/05/04 01:22:05;;;;;;;1999.90;999.90;;;;;;;17.14;60.23;95326.22;4970351;28;20031;-68
2022/05/04 01:24:30;;;;;;;1999.90;999.90;;;;;;;17.06;60.13;95304.88;4970478;28;20034;-69
2022/05/04 01:26:55;;;;;;;1999.90;999.90;;;;;;;17.03;60.02;95302.84;4974447;28;20368;-68
2022/05/04 01:29:21;;;;;;;1999.90;999.90;;;;;;;17.00;59.98;95309.69;4990684;28;20041;-69
2022/05/04 01:31:46;;;;;;;1999.90;999.90;;;;;;;16.79;59.37;95295.66;4970339;28;20027;-69
2022/05/04 01:34:11;;;;;;;1999.90;999.90;;;;;;;16.84;59.77;95308.84;4971358;28;20051;-69
2022/05/04 01:36:37;;;;;;;1999.90;999.90;;;;;;;16.77;60.01;95308.63;4969264;28;20038;-69
2022/05/04 01:39:02;;;;;;;1999.90;999.90;;;;;;;16.62;59.98;95302.78;4970853;28;20113;-68
2022/05/04 01:44:12;;;;;;;1999.90;999.90;;;;;;;16.53;60.33;95312.09;4969940;28;20037;-69
2022/05/04 01:46:37;;;;;;;1999.90;999.90;;;;;;;16.32;60.26;95304.94;4969115;28;20438;-69
2022/05/04 01:49:02;;;;;;;1999.90;999.90;;;;;;;16.28;60.53;95314.81;4969601;28;20081;-69
2022/05/04 01:51:28;;;;;;;1999.90;999.90;;;;;;;16.28;60.99;95319.38;4971385;28;20025;-70
2022/05/04 01:53:53;;;;;;;1999.90;999.90;;;;;;;16.13;60.64;95301.28;4970142;28;20076;-69
2022/05/04 01:56:19;;;;;;;1999.90;999.90;;;;;;;16.13;61.09;95312.00;4969730;28;20035;-68
2022/05/04 01:58:44;;;;;;;1999.90;999.90;;;;;;;15.78;61.26;95296.31;4970103;28;20031;-69
2022/05/04 02:01:09;;;;;;;1999.90;999.90;;;;;;;15.83;61.04;95310.28;4971449;28;20031;-69
2022/05/04 02:03:37;;;;;;;1999.90;999.90;;;;;;;15.68;60.89;95307.47;4969947;28;20101;-68
2022/05/04 02:06:02;;;;;;;1999.90;999.90;;;;;;;15.71;61.57;95309.47;4970580;28;20483;-69
2022/05/04 02:08:28;;;;;;;1999.90;999.90;;;;;;;15.68;61.33;95307.47;4984529;28;20117;-68
2022/05/04 02:10:54;;;;;;;1999.90;999.90;;;;;;;15.59;61.23;95297.56;4969751;28;20023;-69
2022/05/04 02:13:20;;;;;;;1999.90;999.90;;;;;;;15.54;61.56;95300.47;4969596;28;20030;-69
2022/05/04 02:15:45;;;;;;;1999.90;999.90;;;;;;;15.45;61.52;95293.59;4970779;28;20081;-69
2022/05/04 02:18:10;;;;;;;1999.90;999.90;;;;;;;15.51;61.74;95314.53;4968676;28;20069;-69
2022/05/04 02:20:36;;;;;;;1999.90;999.90;;;;;;;15.34;61.89;95285.19;4987309;28;20038;-68
2022/05/04 02:23:01;;;;;;;1999.90;999.90;;;;;;;15.41;62.01;95298.88;4988450;28;20105;-68
2022/05/04 02:25:26;;;;;;;1999.90;999.90;;;;;;;15.30;61.72;95292.34;4970162;28;20388;-69
2022/05/04 02:27:52;;;;;;;1999.90;999.90;;;;;;;15.21;62.02;95284.41;4969985;28;20030;-67
2022/05/04 02:30:17;;;;;;;1999.90;999.90;;;;;;;15.39;62.11;95311.03;4970639;28;20030;-69
2022/05/04 02:32:42;;;;;;;1999.90;999.90;;;;;;;15.38;62.14;95304.88;4968477;28;20034;-68
2022/05/04 02:37:55;;;;;;;1999.90;999.90;;;;;;;15.32;62.44;95290.13;4969536;28;20038;-68
2022/05/04 02:40:21;;;;;;;1999.90;999.90;;;;;;;15.38;62.32;95296.84;4968669;28;20093;-68
2022/05/04 02:42:46;;;;;;;1999.90;999.90;;;;;;;15.39;62.54;95306.44;4967945;28;20590;-69
2022/05/04 02:45:12;;;;;;;1999.90;999.90;;;;;;;15.41;62.49;95306.91;4970701;28;20979;-69
2022/05/04 02:47:38;;;;;;;1999.90;999.90;;;;;;;15.54;62.32;95318.44;4968277;28;20085;-69
2022/05/04 02:50:05;;;;;;;1999.90;999.90;;;;;;;15.42;62.02;95297.75;4970005;28;20035;-68
2022/05/04 02:52:30;;;;;;;1999.90;999.90;;;;;;;15.48;62.27;95309.81;4970171;28;20159;-69
2022/05/04 02:54:55;;;;;;;1999.90;999.90;;;;;;;15.39;62.48;95292.25;4984191;28;20046;-68
2022/05/04 02:57:21;;;;;;;1999.90;999.90;;;;;;;15.53;62.60;95306.94;4969853;28;20401;-68
2022/05/04 02:59:47;;;;;;;1999.90;999.90;;;;;;;15.57;62.71;95293.66;4969581;28;20027;-69
2022/05/04 03:02:27;;;;;;;1999.90;999.90;;;;;;;15.71;62.41;95301.41;4981858;28;20027;-69
2022/05/04 03:04:58;;;;;;;1999.90;999.90;;;;;;;15.81;62.23;95309.81;4950950;28;20043;-69
2022/05/04 03:07:24;;;;;;;1999.90;999.90;;;;;;;15.85;62.27;95309.94;4985358;28;20031;-69
2022/05/04 03:09:49;;;;;;;1999.90;999.90;;;;;;;15.76;61.60;95309.25;4967627;28;20151;-69
2022/05/04 03:12:15;;;;;;;1999.90;999.90;;;;;;;15.74;61.41;95301.53;4968913;28;20057;-68
2022/05/04 03:14:40;;;;;;;1999.90;999.90;;;;;;;15.83;62.13;95306.81;4970231;28;20035;-69
2022/05/04 03:17:06;;;;;;;1999.90;999.90;;;;;;;15.58;61.77;95279.13;4968691;28;20602;-69
2022/05/04 03:19:31;;;;;;;1999.90;999.90;;;;;;;15.71;61.99;95296.84;4971134;28;20034;-69
2022/05/04 03:21:56;;;;;;;1999.90;999.90;;;;;;;15.83;62.25;95304.13;4972996;28;21479;-69
2022/05/04 03:24:22;;;;;;;1999.90;999.90;;;;;;;15.93;61.75;95303.72;4972812;28;20031;-69
2022/05/04 03:26:47;;;;;;;1999.90;999.90;;;;;;;15.72;61.61;95276.97;4972328;28;20058;-69
2022/05/04 03:29:13;;;;;;;1999.90;999.90;;;;;;;15.78;61.64;95294.41;4971476;28;20105;-69
2022/05/04 03:31:39;;;;;;;1999.90;999.90;;;;;;;15.85;61.73;95291.94;4988501;28;20019;-69
2022/05/04 03:34:05;;;;;;;1999.90;999.90;;;;;;;15.89;62.09;95296.66;4972048;28;20212;-68
2022/05/04 03:36:31;;;;;;;1999.90;999.90;;;;;;;15.85;61.76;95302.66;4973091;28;20483;-68
2022/05/04 03:38:58;;;;;;;1999.90;999.90;;;;;;;15.81;61.82;95299.09;4980143;28;20093;-68
2022/05/04 03:41:23;;;;;;;1999.90;999.90;;;;;;;15.73;61.99;95288.47;4987955;28;20438;-68
2022/05/04 03:43:49;;;;;;;1999.90;999.90;;;;;;;15.69;61.52;95282.97;4971138;28;20031;-69
2022/05/04 03:46:23;;;;;;;1999.90;999.90;;;;;;;15.69;61.49;95292.94;4972426;28;20154;-69
2022/05/04 03:48:53;;;;;;;1999.90;999.90;;;;;;;15.46;61.81;95292.53;4972108;28;20034;-68
2022/05/04 03:51:19;;;;;;;1999.90;999.90;;;;;;;15.41;62.16;95301.56;4987981;28;20019;-69
2022/05/04 03:53:46;;;;;;;1999.90;999.90;;;;;;;15.25;62.99;95309.44;4970055;28;20127;-70
2022/05/04 03:56:11;;;;;;;1999.90;999.90;;;;;;;15.12;63.28;95294.41;4972226;28;20134;-69
2022/05/04 03:58:37;;;;;;;1999.90;999.90;;;;;;;15.43;62.43;95291.28;4972529;28;20523;-69
2022/05/04 04:01:04;;;;;;;1999.90;999.90;;;;;;;15.85;62.28;95302.66;4971976;28;20479;-70
2022/05/04 04:03:30;;;;;;;1999.90;999.90;;;;;;;16.13;62.55;95303.94;4971373;28;20372;-69
2022/05/04 04:05:55;;;;;;;1999.90;999.90;;;;;;;16.23;62.16;95295.47;4987478;28;20037;-69
2022/05/04 04:08:21;;;;;;;1999.90;999.90;;;;;;;16.48;62.03;95305.06;4971334;28;20039;-69
2022/05/04 04:10:46;;;;;;;1999.90;999.90;;;;;;;16.70;61.07;95308.38;4971673;28;20030;-69
2022/05/04 04:13:12;;;;;;;1999.90;999.90;;;;;;;16.89;61.12;95305.94;4969927;28;20117;-69
2022/05/04 04:15:38;;;;;;;1999.90;999.90;;;;;;;16.93;60.80;95287.19;4970184;28;20483;-69
2022/05/04 04:18:03;;;;;;;1999.90;999.90;;;;;;;17.13;60.29;95295.09;4970853;28;20039;-69
2022/05/04 04:23:12;;;;;;;1999.90;999.90;;;;;;;17.41;59.91;95305.84;4958024;28;20047;-69
2022/05/04 04:25:38;;;;;;;1999.90;999.90;;;;;;;17.63;59.65;95315.25;4959583;28;20027;-70
2022/05/04 04:28:04;;;;;;;1999.90;999.90;;;;;;;17.75;59.02;95313.66;4972014;28;20424;-69
2022/05/04 04:30:30;;;;;;;1999.90;999.90;;;;;;;17.82;58.66;95301.19;4971599;28;20019;-69
2022/05/04 04:32:55;;;;;;;1999.90;999.90;;;;;;;17.85;58.00;95294.31;4970586;28;20030;-69
2022/05/04 04:35:20;;;;;;;1999.90;999.90;;;;;;;17.99;57.69;95301.97;4971318;28;20033;-70
2022/05/04 04:37:46;;;;;;;1999.90;999.90;;;;;;;18.01;57.50;95294.31;4971012;28;20042;-69
2022/05/04 04:40:12;;;;;;;1999.90;999.90;;;;;;;18.18;57.24;95313.63;4970076;28;20692;-69
2022/05/04 04:42:37;;;;;;;1999.90;999.90;;;;;;;18.22;56.74;95315.59;4971908;28;20607;-69
2022/05/04 04:45:04;;;;;;;1999.90;999.90;;;;;;;18.31;56.45;95327.75;4969159;28;20077;-69
2022/05/04 04:47:30;;;;;;;1999.90;999.90;;;;;;;18.23;56.28;95311.78;4985821;28;20066;-69
2022/05/04 04:49:56;;;;;;;1999.90;999.90;;;;;;;18.32;55.96;95310.47;4986283;28;20030;-69
2022/05/04 04:52:22;;;;;;;1999.90;999.90;;;;;;;18.32;55.74;95307.00;4971397;28;20026;-69
2022/05/04 04:54:47;;;;;;;1999.90;999.90;;;;;;;18.24;55.47;95303.34;4969480;28;20084;-69
2022/05/04 04:57:12;;;;;;;1999.90;999.90;;;;;;;18.32;55.46;95307.75;4971954;28;20710;-69
2022/05/04 04:59:38;;;;;;;1999.90;999.90;;;;;;;18.35;55.32;95319.75;4971046;28;20027;-69
2022/05/04 05:02:03;;;;;;;1999.90;999.90;;;;;;;18.34;55.35;95315.53;4969841;28;20503;-69
2022/05/04 05:04:29;;;;;;;1999.90;999.90;;;;;;;18.35;55.32;95317.06;4971450;28;20027;-70
2022/05/04 05:06:54;;;;;;;1999.90;999.90;;;;;;;18.32;55.22;95321.22;4970492;28;20109;-69
2022/05/04 05:09:19;;;;;;;1999.90;999.90;;;;;;;18.33;55.20;95327.41;4986377;28;20507;-70
2022/05/04 05:11:45;;;;;;;1999.90;999.90;;;;;;;18.41;55.60;95331.84;4969240;28;20412;-70
2022/05/04 05:16:54;;;;;;;1999.90;999.90;;;;;;;18.30;55.61;95323.50;4970216;28;20415;-69
2022/05/04 05:19:19;;;;;;;1999.90;999.90;;;;;;;18.34;55.31;95331.66;4969959;28;20053;-70
2022/05/04 05:21:45;;;;;;;1999.90;999.90;;;;;;;18.14;55.16;95309.28;4970406;28;20594;-69
2022/05/04 05:24:10;;;;;;;1999.90;999.90;;;;;;;18.21;55.60;95319.41;4969255;28;20463;-69
2022/05/04 05:26:36;;;;;;;1999.90;999.90;;;;;;;18.20;55.55;95318.63;4986367;28;20058;-70
2022/05/04 05:29:01;;;;;;;1999.90;999.90;;;;;;;18.23;55.63;95317.19;4969613;28;20027;-70
2022/05/04 05:31:26;;;;;;;1999.90;999.90;;;;;;;18.34;55.55;95331.66;4970499;28;20062;-70
2022/05/04 05:33:52;;;;;;;1999.90;999.90;;;;;;;18.25;55.65;95310.31;4968764;28;20100;-70
2022/05/04 05:36:17;;;;;;;1999.90;999.90;;;;;;;18.21;55.71;95314.03;4986010;28;20027;-72
2022/05/04 05:38:42;;;;;;;1999.90;999.90;;;;;;;17.98;55.65;95289.66;4968518;28;20015;-77
2022/05/04 05:41:08;;;;;;;1999.90;999.90;;;;;;;18.12;55.91;95306.16;4993383;28;20391;-73
2022/05/04 05:43:33;;;;;;;1999.90;999.90;;;;;;;18.24;55.79;95324.13;4969540;28;20029;-73
2022/05/04 05:45:58;;;;;;;1999.90;999.90;;;;;;;18.22;55.88;95326.34;4969495;28;20070;-72
2022/05/04 05:48:24;;;;;;;1999.90;999.90;;;;;;;18.34;55.57;95351.31;4970525;28;20030;-72
2022/05/04 05:50:51;;;;;;;1999.90;999.90;;;;;;;18.43;55.48;95343.84;4965558;28;20019;-73
2022/05/04 05:53:16;;;;;;;1999.90;999.90;;;;;;;18.30;55.55;95331.59;4961023;28;20035;-67
2022/05/04 05:55:42;;;;;;;1999.90;999.90;;;;;;;18.30;54.51;95333.50;4966987;28;20045;-68
2022/05/04 05:58:07;;;;;;;1999.90;999.90;;;;;;;18.63;54.84;95355.47;4970197;28;20065;-69
2022/05/04 06:00:32;;;;;;;1999.90;999.90;;;;;;;18.72;54.61;95344.50;4966341;28;20038;-66
2022/05/04 06:02:58;;;;;;;1999.90;999.90;;;;;;;18.95;54.40;95336.56;4962767;28;20419;-68
2022/05/04 06:05:23;;;;;;;1999.90;999.90;;;;;;;19.19;53.91;95341.69;4970697;28;20514;-71
2022/05/04 06:07:49;;;;;;;1999.90;999.90;;;;;;;19.46;53.50;95348.03;4987828;28;20085;-66
2022/05/04 06:10:15;;;;;;;1999.90;999.90;;;;;;;19.61;52.58;95338.31;4970630;28;20107;-69
2022/05/04 06:12:40;;;;;;;1999.90;999.90;;;;;;;19.84;51.91;95348.38;4970121;28;20468;-69
2022/05/04 06:15:10;;;;;;;1999.90;999.90;;;;;;;20.00;51.33;95349.03;4970601;28;20061;-70
2022/05/04 06:17:36;;;;;;;1999.90;999.90;;;;;;;20.10;51.04;95350.38;4969733;28;20542;-66
2022/05/04 06:20:04;;;;;;;1999.90;999.90;;;;;;;20.04;50.07;95355.28;4969251;28;20102;-69
2022/05/04 06:22:29;;;;;;;1999.90;999.90;;;;;;;20.14;50.15;95353.91;4969217;28;20130;-67
2022/05/04 06:24:55;;;;;;;1999.90;999.90;;;;;;;20.25;50.23;95349.47;4969919;28;20106;-66
2022/05/04 06:27:20;;;;;;;1999.90;999.90;;;;;;;20.28;49.55;95358.78;4970608;28;20027;-66
2022/05/04 06:35:13;;;;;;;1999.90;999.90;;;;;;;20.21;50.37;95368.31;4970661;28;20198;-67
2022/05/04 06:37:39;;;;;;;1999.90;999.90;;;;;;;20.26;49.30;95364.53;4969754;28;20596;-66
2022/05/04 06:40:06;;;;;;;1999.90;999.90;;;;;;;20.38;49.65;95361.66;4969799;28;20023;-66
2022/05/04 06:42:34;;;;;;;1999.90;999.90;;;;;;;20.61;49.62;95367.06;4970338;28;20117;-66
2022/05/04 06:45:03;;;;;;;1999.90;999.90;;;;;;;20.79;48.81;95355.75;4969309;28;20051;-67
2022/05/04 06:47:29;;;;;;;1999.90;999.90;;;;;;;21.00;48.61;95353.34;4968684;28;20035;-65
2022/05/04 06:49:54;;;;;;;1999.90;999.90;;;;;;;21.27;48.40;95367.63;4984714;28;20054;-65
2022/05/04 06:52:20;;;;;;;1999.90;999.90;;;;;;;21.38;47.52;95359.66;4968479;28;20022;-65
2022/05/04 06:54:46;;;;;;;1999.90;999.90;;;;;;;21.55;47.11;95369.97;4961659;28;20090;-67
2022/05/04 06:57:11;;;;;;;1999.90;999.90;;;;;;;21.84;46.52;95372.97;4974874;28;20403;-67
2022/05/04 06:59:36;;;;;;;1999.90;999.90;;;;;;;22.11;46.37;95365.53;4973366;28;20109;-69
2022/05/04 07:02:02;;;;;;;1999.90;999.90;;;;;;;22.26;45.62;95365.28;4972512;28;20054;-65
2022/05/04 07:04:27;;;;;;;1999.90;999.90;;;;;;;22.62;45.70;95376.44;4972938;28;20041;-65
2022/05/04 07:06:52;;;;;;;1999.90;999.90;;;;;;;22.81;45.11;95365.38;4971159;28;20484;-67
2022/05/04 07:09:18;;;;;;;1999.90;999.90;;;;;;;23.05;44.63;95365.94;4971813;28;20424;-66
2022/05/04 07:11:43;;;;;;;1999.90;999.90;;;;;;;23.24;43.72;95362.97;4972451;28;20035;-64
2022/05/04 07:14:09;;;;;;;1999.90;999.90;;;;;;;23.24;43.22;95352.09;4989223;28;20030;-66
2022/05/04 07:16:34;;;;;;;1999.90;999.90;;;;;;;23.16;43.32;95326.06;4970331;28;20073;-65
2022/05/04 07:18:59;;;;;;;1999.90;999.90;;;;;;;23.25;41.35;95361.78;4985408;28;20114;-65
2022/05/04 07:21:25;;;;;;;1999.90;999.90;;;;;;;23.40;41.53;95353.72;4988547;28;20487;-62
2022/05/04 07:23:50;;;;;;;1999.90;999.90;;;;;;;23.56;41.85;95359.63;4973733;28;20069;-62
2022/05/04 07:26:16;;;;;;;1999.90;999.90;;;;;;;23.66;41.27;95364.34;4973822;28;20109;-62
2022/05/04 07:28:41;;;;;;;1999.90;999.90;;;;;;;23.67;40.87;95346.88;4972782;28;20029;-63
2022/05/04 07:31:06;;;;;;;1999.90;999.90;;;;;;;23.75;40.90;95355.81;4973518;28;20118;-62
2022/05/04 07:33:32;;;;;;;1999.90;999.90;;;;;;;23.93;41.29;95350.44;4971137;28;20042;-63
2022/05/04 07:35:57;;;;;;;1999.90;999.90;;;;;;;23.88;38.50;95337.25;4973687;28;20031;-63
2022/05/04 07:38:23;;;;;;;1999.90;999.90;;;;;;;24.16;39.83;95344.66;4972050;28;20030;-63
2022/05/04 07:43:32;;;;;;;1999.90;999.90;;;;;;;24.41;39.39;95355.59;4973700;28;20104;-62
2022/05/04 07:45:57;;;;;;;1999.90;999.90;;;;;;;24.44;38.03;95339.28;4973561;28;20026;-63
2022/05/04 07:48:23;;;;;;;1999.90;999.90;;;;;;;24.53;36.99;95349.78;4972323;28;20066;-63
2022/05/04 07:50:48;;;;;;;1999.90;999.90;;;;;;;24.42;36.22;95351.72;4972439;28;20031;-63
2022/05/04 07:53:13;;;;;;;1999.90;999.90;;;;;;;24.57;36.68;95351.34;4973421;28;20030;-63
2022/05/04 07:55:39;;;;;;;1999.90;999.90;;;;;;;24.62;35.24;95352.88;4988242;28;20437;-63
2022/05/04 07:58:04;;;;;;;1999.90;999.90;;;;;;;24.71;35.61;95358.69;4986977;28;20030;-63
2022/05/04 08:05:58;;;;;;;1999.90;999.90;;;;;;;24.99;35.92;95360.63;4973212;28;20041;-65
2022/05/04 08:08:23;;;;;;;1999.90;999.90;;;;;;;24.95;35.08;95356.34;4972664;28;20030;-64
2022/05/04 08:10:48;;;;;;;1999.90;999.90;;;;;;;25.04;35.28;95362.16;4972158;28;20061;-65
2022/05/04 08:13:14;;;;;;;1999.90;999.90;;;;;;;24.78;36.43;95361.44;4972728;28;20131;-64
2022/05/04 08:15:40;;;;;;;1999.90;999.90;;;;;;;25.08;36.51;95349.34;4973020;28;20034;-63
2022/05/04 08:18:05;;;;;;;1999.90;999.90;;;;;;;25.38;36.76;95357.03;4985733;28;20031;-63
2022/05/04 08:20:31;;;;;;;1999.90;999.90;;;;;;;25.48;35.59;95356.22;4972877;28;20035;-64
2022/05/04 08:22:59;;;;;;;1999.90;999.90;;;;;;;25.62;34.47;95366.31;4971742;28;20035;-63
2022/05/04 08:25:25;;;;;;;1999.90;999.90;;;;;;;25.86;33.18;95356.50;4986899;28;20130;-64
2022/05/04 08:27:51;;;;;;;1999.90;999.90;;;;;;;25.68;31.86;95357.31;4972792;28;20098;-65
2022/05/04 08:30:17;;;;;;;1999.90;999.90;;;;;;;22.39;36.15;95381.31;4971736;28;20027;-64
2022/05/04 08:32:47;;;;;;;1999.90;999.90;;;;;;;22.66;35.32;95374.53;4970995;28;20082;-64
2022/05/04 08:35:13;;;;;;;1999.90;999.90;;;;;;;21.40;36.20;95384.47;4970944;28;20306;-64
2022/05/04 08:37:39;;;;;;;1999.90;999.90;;;;;;;22.19;35.41;95373.38;4969813;28;20035;-64
2022/05/04 08:40:05;;;;;;;1999.90;999.90;;;;;;;22.45;35.87;95374.38;4987079;28;20066;-64
2022/05/04 08:42:30;;;;;;;1999.90;999.90;;;;;;;23.35;33.89;95371.16;4972569;28;20026;-65
2022/05/04 08:44:57;;;;;;;1999.90;999.90;;;;;;;24.50;34.39;95361.41;4970860;28;20113;-64
2022/05/04 08:47:28;;;;;;;1999.90;999.90;;;;;;;25.39;33.54;95366.78;4986969;28;20122;-64
2022/05/04 08:49:53;;;;;;;1999.90;999.90;;;;;;;25.89;32.66;95356.47;4971110;28;20022;-64
2022/05/04 08:52:21;;;;;;;1999.90;999.90;;;;;;;26.28;32.29;95358.19;4972395;28;20049;-64
2022/05/04 08:54:48;;;;;;;1999.90;999.90;;;;;;;25.39;32.07;95347.72;4971143;28;20031;-65
2022/05/04 08:57:14;;;;;;;1999.90;999.90;;;;;;;26.11;31.80;95361.81;4972264;28;20023;-63
2022/05/04 08:59:41;;;;;;;1999.90;999.90;;;;;;;26.70;32.00;95365.31;4970069;28;20117;-64
2022/05/04 09:02:08;;;;;;;1999.90;999.90;;;;;;;27.16;31.64;95371.56;4986816;28;20062;-64
2022/05/04 09:04:33;;;;;;;1999.90;999.90;;;;;;;27.56;31.58;95350.81;4970632;28;20038;-64
2022/05/04 09:07:01;;;;;;;1999.90;999.90;;;;;;;27.81;31.36;95366.19;4971905;28;20107;-64
2022/05/04 09:09:27;;;;;;;1999.90;999.90;;;;;;;27.66;32.15;95365.53;4970218;28;20027;-65
2022/05/04 09:11:52;;;;;;;1999.90;999.90;;;;;;;27.66;31.74;95362.81;4972121;28;20029;-65
2022/05/04 09:14:26;;;;;;;1999.90;999.90;;;;;;;27.32;30.70;95363.56;4970922;28;20033;-65
2022/05/04 09:16:52;;;;;;;1999.90;999.90;;;;;;;24.46;34.83;95366.84;4971703;28;20066;-65
2022/05/04 09:19:19;;;;;;;1999.90;999.90;;;;;;;24.55;35.17;95358.31;4968610;28;20045;-65
2022/05/04 09:21:47;;;;;;;1999.90;999.90;;;;;;;21.60;40.42;95364.22;4971554;28;20058;-64
2022/05/04 09:24:15;;;;;;;1999.90;999.90;;;;;;;23.35;38.00;95358.34;4971201;28;20125;-64
2022/05/04 09:26:42;;;;;;;1999.90;999.90;;;;;;;23.96;36.43;95360.56;4971748;28;20026;-65
2022/05/04 09:29:11;;;;;;;1999.90;999.90;;;;;;;23.39;36.49;95360.28;4970082;28;20147;-65
2022/05/04 09:31:39;;;;;;;1999.90;999.90;;;;;;;23.16;36.95;95360.56;4971170;28;20042;-65
2022/05/04 09:34:08;;;;;;;1999.90;999.90;;;;;;;23.99;34.67;95348.91;4970117;28;20158;-64
2022/05/04 09:45:11;;;;;;;1999.90;999.90;;;;;;;23.05;34.66;95355.09;4971400;28;20707;-64
2022/05/04 09:47:38;;;;;;;1999.90;999.90;;;;;;;24.17;34.29;95355.16;4970971;28;20072;-63
2022/05/04 09:50:04;;;;;;;1999.90;999.90;;;;;;;24.80;33.32;95341.97;4967972;28;20026;-65
2022/05/04 09:52:42;;;;;;;1999.90;999.90;;;;;;;25.34;31.93;95348.13;4986013;28;20383;-66
2022/05/04 09:55:14;;;;;;;1999.90;999.90;;;;;;;25.76;31.46;95333.59;4970687;28;20065;-67
2022/05/04 09:57:42;;;;;;;1999.90;999.90;;;;;;;26.13;31.00;95343.09;4971349;28;20126;-65
2022/05/04 10:00:08;;;;;;;1999.90;999.90;;;;;;;26.52;31.58;95337.41;4985452;28;20031;-68
2022/05/04 10:02:36;;;;;;;1999.90;999.90;;;;;;;26.79;30.89;95334.06;4970305;28;20514;-66
2022/05/04 10:05:02;;;;;;;1999.90;999.90;;;;;;;26.84;31.05;95320.75;4970329;28;20042;-68
2022/05/04 10:07:28;;;;;;;1999.90;999.90;;;;;;;27.28;30.83;95330.09;4971024;28;20472;-67
2022/05/04 10:09:53;;;;;;;1999.90;999.90;;;;;;;26.96;28.96;95328.41;4970125;28;20039;-66
2022/05/04 10:12:20;;;;;;;1999.90;999.90;;;;;;;27.13;30.32;95329.47;4971052;28;20106;-67
2022/05/04 10:14:46;;;;;;;1999.90;999.90;;;;;;;27.11;30.33;95320.13;4970166;28;20066;-65
2022/05/04 10:17:20;;;;;;;1999.90;999.90;;;;;;;26.82;30.83;95323.13;4969577;28;20058;-66
2022/05/04 10:20:09;;;;;;;1999.90;999.90;;;;;;;25.61;29.93;95326.63;4965257;28;20050;-65
2022/05/04 10:22:53;;;;;;;1999.90;999.90;;;;;;;24.29;33.00;95334.97;4971771;28;20027;-65
2022/05/04 10:25:18;;;;;;;1999.90;999.90;;;;;;;24.07;35.17;95320.59;4970397;28;20027;-65
2022/05/04 10:27:46;;;;;;;1999.90;999.90;;;;;;;23.07;37.64;95339.97;4974531;28;20030;-65
2022/05/04 10:30:30;;;;;;;1999.90;999.90;;;;;;;22.31;40.81;95326.25;4974431;28;20015;-65
2022/05/04 10:33:01;;;;;;;1999.90;999.90;;;;;;;19.93;50.69;95330.03;4972164;28;20518;-65
2022/05/04 10:35:36;;;;;;;1999.90;999.90;;;;;;;19.76;55.00;95331.28;4983772;28;20487;-64
2022/05/04 10:38:01;;;;;;;1999.90;999.90;;;;;;;19.10;58.34;95333.03;4987331;28;20038;-64
2022/05/04 10:40:39;;;;;;;1999.90;999.90;;;;;;;19.01;56.57;95320.88;4989569;28;20075;-64
2022/05/04 10:43:18;;;;;;;1999.90;999.90;;;;;;;19.69;56.91;95321.09;4988773;28;20031;-64
2022/05/04 10:45:47;;;;;;;1999.90;999.90;;;;;;;20.05;58.98;95326.38;4974572;28;20507;-64
2022/05/04 10:48:22;;;;;;;1999.90;999.90;;;;;;;20.29;61.28;95327.94;4988470;28;20038;-64
2022/05/04 10:50:57;;;;;;;1999.90;999.90;;;;;;;20.16;59.92;95328.09;4973281;28;20034;-64
2022/05/04 10:53:25;;;;;;;1999.90;999.90;;;;;;;19.92;59.06;95323.06;4972881;28;20037;-64
2022/05/04 10:56:01;;;;;;;1999.90;999.90;;;;;;;19.37;58.23;95301.59;4974451;28;20506;-64
2022/05/04 10:58:42;;;;;;;1999.90;999.90;;;;;;;19.87;60.40;95316.03;4974964;28;20031;-65
2022/05/04 11:01:11;;;;;;;1999.90;999.90;;;;;;;19.81;56.69;95317.47;4974176;28;20031;-64
2022/05/04 11:03:48;;;;;;;1999.90;999.90;;;;;;;19.94;58.15;95315.38;4988307;28;20395;-64
2022/05/04 11:06:25;;;;;;;1999.90;999.90;;;;;;;20.12;58.24;95307.59;4973462;28;20034;-65
2022/05/04 11:08:52;;;;;;;1999.90;999.90;;;;;;;20.31;59.51;95306.72;4973471;28;20356;-64
2022/05/04 11:11:20;;;;;;;1999.90;999.90;;;;;;;20.63;61.29;95294.53;4973473;28;20026;-64
2022/05/04 11:13:46;;;;;;;1999.90;999.90;;;;;;;20.94;58.98;95303.44;4973487;28;20773;-65
2022/05/04 11:16:12;;;;;;;1999.90;999.90;;;;;;;20.78;56.19;95300.91;4972890;28;20031;-65
2022/05/04 11:18:38;;;;;;;1999.90;999.90;;;;;;;20.24;53.95;95310.09;4987463;28;20035;-65
2022/05/04 11:21:10;;;;;;;1999.90;999.90;;;;;;;20.06;55.72;95306.31;4971855;28;20039;-66
2022/05/04 11:23:37;;;;;;;1999.90;999.90;;;;;;;20.25;56.17;95295.44;4972636;28;20105;-66
2022/05/04 11:26:03;;;;;;;1999.90;999.90;;;;;;;20.26;55.77;95289.69;4988715;28;20420;-65